Trementina, New Mexico
Current Conditions -  °F | °C
As of 5:53 PM on Wednesday 22 Oct 2014 (Local Time) from KLVS Reporting Station
Clear Clear  
Wind Chill: 64°   Ceiling: Unl
Heat Index: 64°   Visibility: 10mi
Dew Point: 32°   Wind: 5mph
Humidity: 30%   Direction: 20°NNE
Pressure: 30.17"   Gusts: NA
Location:  35.46°N, 104.42°W
Report Text: KLVS 222353Z AUTO 02004KT 10SM CLR 18/00 A3017 RMK AO2 SLP140 6//// T01780000 10211 20172 53002
Loading
Personal Weather Stations






























Interactive Weather Map
Tropical Storm Tracking
New forecast layout! Learn more

10-Day Weather Forecast

Advertisements
Track Severe Weather on mobile